Погода Аль-Бураимина 2 недели

Салала, Оман

19 июля-01 августа
  • 19июля
    Сегодня
    +32°
    +45°
    Небольшая облачность
    ВремяПогодаТемператураВлажностьДавлениеВетер, м/сВероятность осадков
    01:00Облачно с прояснениями+36°C55 %723 мм2.3 м/с1 %
    04:00Облачно с прояснениями+34°C62 %723 мм1.8 м/с1 %
    07:00Практически безоблачно+33°C60 %724 мм2.0 м/с1 %
    10:00Небольшая облачность+40°C28 %724 мм4.5 м/с1 %
    13:00Небольшая облачность+42°C17 %722 мм3.2 м/с1 %
    16:00Ясно и безоблачно+45°C16 %721 мм4.4 м/с1 %
    19:00Ясно и безоблачно+42°C24 %722 мм6.2 м/с1 %
    22:00Ясно и безоблачно+38°C37 %723 мм3.3 м/с1 %
  • 20июля
    Суббота
    +33°
    +46°
    Ясно и безоблачно
    ВремяПогодаТемператураВлажностьДавлениеВетер, м/сВероятность осадков
    01:00Облачно с прояснениями+35°C51 %722 мм2.5 м/с1 %
    04:00Облачно с прояснениями+34°C65 %722 мм1.7 м/с1 %
    07:00Практически безоблачно+34°C59 %723 мм2.2 м/с1 %
    10:00Практически безоблачно+41°C25 %724 мм3.2 м/с1 %
    13:00Ясно и безоблачно+45°C13 %723 мм2.5 м/с1 %
    16:00Небольшая облачность+45°C13 %722 мм3.9 м/с1 %
    19:00Облачно с прояснениями+42°C17 %722 мм5.2 м/с1 %
    22:00Облачно с прояснениями+37°C53 %724 мм4.0 м/с1 %
  • 21июля
    Воскресенье
    +33°
    +46°
    Ясно и безоблачно
    ВремяПогодаТемператураВлажностьДавлениеВетер, м/сВероятность осадков
    01:00Ясно и безоблачно+36°C63 %723 мм2.4 м/с1 %
    04:00Ясно и безоблачно+34°C72 %723 мм2.5 м/с1 %
    07:00Практически безоблачно+35°C66 %724 мм2.8 м/с1 %
    10:00Ясно и безоблачно+41°C23 %725 мм3.6 м/с1 %
    13:00Ясно и безоблачно+45°C15 %723 мм2.8 м/с1 %
    16:00Ясно и безоблачно+46°C15 %722 мм4.0 м/с1 %
    19:00Ясно и безоблачно+43°C22 %723 мм5.8 м/с1 %
    22:00Ясно и безоблачно+38°C54 %724 мм4.7 м/с1 %
  • 22июля
    Понедельник
    +32°
    +46°
    Ясно и безоблачно
    ВремяПогодаТемператураВлажностьДавлениеВетер, м/сВероятность осадков
    01:00Ясно и безоблачно+36°C61 %723 мм2.7 м/с1 %
    04:00Ясно и безоблачно+34°C77 %723 мм2.9 м/с1 %
    07:00Ясно и безоблачно+34°C80 %724 мм2.5 м/с1 %
    10:00Ясно и безоблачно+40°C25 %725 мм4.4 м/с1 %
    13:00Ясно и безоблачно+45°C18 %724 мм3.7 м/с1 %
    16:00Практически безоблачно+46°C17 %722 мм4.7 м/с1 %
    19:00Ясно и безоблачно+43°C16 %723 мм6.4 м/с1 %
    22:00Практически безоблачно+38°C37 %724 мм4.3 м/с1 %
  • 23июля
    Вторник
    +30°
    +45°
    Ясно и безоблачно
    ВремяПогодаТемператураВлажностьДавлениеВетер, м/сВероятность осадков
    01:00Ясно и безоблачно+35°C50 %724 мм3.0 м/с1 %
    04:00Практически безоблачно+33°C73 %724 мм2.0 м/с1 %
    07:00Небольшая облачность+33°C72 %724 мм2.8 м/с1 %
    10:00Практически безоблачно+40°C29 %725 мм3.5 м/с1 %
    13:00Ясно и безоблачно+44°C13 %724 мм3.2 м/с1 %
    16:00Ясно и безоблачно+45°C13 %722 мм4.7 м/с1 %
    19:00Ясно и безоблачно+41°C17 %722 мм6.8 м/с1 %
    22:00Небольшая облачность+35°C56 %724 мм3.5 м/с1 %
Мы используем cookies
Соглашаюсь